createdAt,value
2018-07-14T00:01:47.630Z,24.40
2018-07-14T00:04:16.074Z,24.40
2018-07-14T00:06:44.536Z,24.40
2018-07-14T00:09:12.959Z,24.40
2018-07-14T00:11:41.475Z,24.40
2018-07-14T00:14:10.152Z,24.40
2018-07-14T00:16:38.562Z,24.40
2018-07-14T00:19:06.998Z,24.40
2018-07-14T00:24:03.666Z,24.40
2018-07-14T00:26:32.194Z,24.40
2018-07-14T00:29:00.628Z,24.40
2018-07-14T00:31:29.072Z,24.30
2018-07-14T00:33:57.573Z,24.40
2018-07-14T00:36:26.008Z,24.40
2018-07-14T00:38:54.443Z,24.30
2018-07-14T00:41:22.864Z,24.40
2018-07-14T00:43:51.289Z,24.30
2018-07-14T00:46:19.737Z,24.30
2018-07-14T00:51:16.357Z,24.30
2018-07-14T00:53:44.791Z,24.30
2018-07-14T00:56:13.252Z,24.30
2018-07-14T00:58:41.652Z,24.30
2018-07-14T01:01:10.222Z,24.30
2018-07-14T01:03:38.704Z,24.30
2018-07-14T01:06:07.179Z,24.30
2018-07-14T01:08:35.624Z,24.30
2018-07-14T01:11:04.064Z,24.30
2018-07-14T01:13:32.505Z,24.30
2018-07-14T01:16:01.001Z,24.30
2018-07-14T01:18:29.482Z,24.30
2018-07-14T01:20:57.974Z,24.30
2018-07-14T01:23:26.520Z,24.30
2018-07-14T01:25:55.028Z,24.30
2018-07-14T01:28:23.533Z,24.30
2018-07-14T01:35:48.364Z,24.30
2018-07-14T01:38:16.770Z,24.30
2018-07-14T01:40:45.271Z,24.30
2018-07-14T01:43:13.666Z,24.30
2018-07-14T01:45:42.155Z,24.30
2018-07-14T01:48:10.585Z,24.30
2018-07-14T01:50:39.023Z,24.30
2018-07-14T01:53:07.465Z,24.30
2018-07-14T01:55:35.907Z,24.30
2018-07-14T01:58:04.385Z,24.30
2018-07-14T02:00:32.829Z,24.30
2018-07-14T02:03:01.240Z,24.30
2018-07-14T02:05:29.647Z,24.20
2018-07-14T02:07:58.043Z,24.30
2018-07-14T02:10:26.463Z,24.20
2018-07-14T02:12:54.913Z,24.20
2018-07-14T02:15:23.409Z,24.20
2018-07-14T02:17:51.868Z,24.20
2018-07-14T02:20:20.365Z,24.20
2018-07-14T02:25:17.027Z,24.20
2018-07-14T02:27:45.426Z,24.20
2018-07-14T02:30:13.864Z,24.20
2018-07-14T02:32:42.390Z,24.20
2018-07-14T02:35:10.858Z,24.20
2018-07-14T02:37:39.419Z,24.20
2018-07-14T02:40:07.877Z,24.20
2018-07-14T02:42:36.873Z,24.20
2018-07-14T02:45:06.147Z,24.20
2018-07-14T02:47:34.953Z,24.20
2018-07-14T02:50:03.557Z,24.20
2018-07-14T02:52:31.986Z,24.20
2018-07-14T02:55:00.412Z,24.20
2018-07-14T02:57:28.881Z,24.20
2018-07-14T02:59:57.317Z,24.20
2018-07-14T03:02:26.000Z,24.20
2018-07-14T03:04:54.675Z,24.20
2018-07-14T03:07:23.083Z,24.20
2018-07-14T03:09:51.492Z,24.10
2018-07-14T03:12:20.000Z,24.20
2018-07-14T03:14:48.426Z,24.20
2018-07-14T03:17:16.871Z,24.20
2018-07-14T03:19:45.317Z,24.20
2018-07-14T03:22:13.772Z,24.10
2018-07-14T03:24:42.195Z,24.20
2018-07-14T03:27:10.616Z,24.20
2018-07-14T03:29:39.093Z,24.10
2018-07-14T03:32:07.548Z,24.10
2018-07-14T03:34:36.032Z,24.10
2018-07-14T03:37:04.672Z,24.20
2018-07-14T03:39:33.111Z,24.10
2018-07-14T03:42:01.616Z,24.10
2018-07-14T03:44:30.040Z,24.10
2018-07-14T03:46:58.502Z,24.10
2018-07-14T03:49:26.972Z,24.10
2018-07-14T03:51:55.382Z,24.10
2018-07-14T03:54:23.906Z,24.10
2018-07-14T03:56:52.358Z,24.10
2018-07-14T03:59:20.801Z,24.10
2018-07-14T04:01:49.215Z,24.10
2018-07-14T04:04:17.624Z,24.10
2018-07-14T04:06:46.097Z,24.10
2018-07-14T04:09:14.545Z,24.10
2018-07-14T04:11:42.995Z,24.10
2018-07-14T04:14:11.470Z,24.10
2018-07-14T04:16:39.897Z,24.10
2018-07-14T04:19:08.397Z,24.10
2018-07-14T04:21:36.872Z,24.10
2018-07-14T04:24:05.332Z,24.10
2018-07-14T04:26:33.804Z,24.10
2018-07-14T04:29:02.288Z,24.10
2018-07-14T04:31:30.857Z,24.10
2018-07-14T04:33:59.540Z,24.10
2018-07-14T04:36:28.075Z,24.10
2018-07-14T04:38:56.640Z,24.10
2018-07-14T04:41:25.195Z,24.10
2018-07-14T04:43:53.677Z,24.10
2018-07-14T04:46:22.145Z,24.10
2018-07-14T04:48:50.592Z,24.10
2018-07-14T04:51:19.052Z,24.10
2018-07-14T04:53:47.516Z,24.10
2018-07-14T04:56:15.975Z,24.10
2018-07-14T04:58:44.444Z,24.10
2018-07-14T05:01:12.912Z,24.10
2018-07-14T05:03:41.368Z,24.10
2018-07-14T05:06:09.792Z,24.10
2018-07-14T05:08:38.236Z,24.10
2018-07-14T05:11:06.783Z,24.10
2018-07-14T05:13:35.248Z,24.20
2018-07-14T05:16:03.673Z,24.10
2018-07-14T05:18:32.157Z,24.10
2018-07-14T05:21:00.593Z,24.20
2018-07-14T05:23:29.063Z,24.20
2018-07-14T05:25:57.538Z,24.20
2018-07-14T05:28:26.063Z,24.20
2018-07-14T05:30:54.589Z,24.20
2018-07-14T05:33:23.004Z,24.20
2018-07-14T05:35:51.396Z,24.20
2018-07-14T05:38:19.977Z,24.20
2018-07-14T05:40:48.384Z,24.20
2018-07-14T05:43:16.802Z,24.30
2018-07-14T05:45:45.317Z,24.30
2018-07-14T05:48:13.833Z,24.30
2018-07-14T05:50:42.238Z,24.30
2018-07-14T05:53:10.731Z,24.30
2018-07-14T05:55:39.125Z,24.40
2018-07-14T05:58:07.518Z,24.30
2018-07-14T06:00:35.947Z,24.40
2018-07-14T06:03:04.353Z,24.40
2018-07-14T06:05:32.794Z,24.40
2018-07-14T06:08:01.223Z,24.40
2018-07-14T06:10:29.666Z,24.50
2018-07-14T06:12:58.114Z,24.50
2018-07-14T06:15:26.550Z,24.50
2018-07-14T06:17:54.945Z,24.50
2018-07-14T06:20:23.359Z,24.50
2018-07-14T06:22:51.868Z,24.50
2018-07-14T06:25:20.287Z,24.50
2018-07-14T06:27:48.742Z,24.60
2018-07-14T06:30:17.158Z,24.60
2018-07-14T06:32:45.647Z,24.60
2018-07-14T06:35:14.140Z,24.60
2018-07-14T06:37:42.661Z,24.60
2018-07-14T06:40:11.109Z,24.60
2018-07-14T06:42:39.702Z,24.70
2018-07-14T06:45:08.244Z,24.70
2018-07-14T06:47:37.364Z,24.70
2018-07-14T06:50:05.828Z,24.70
2018-07-14T06:52:34.507Z,24.70
2018-07-14T06:55:03.343Z,24.80
2018-07-14T06:57:31.826Z,24.80
2018-07-14T07:00:00.382Z,24.80
2018-07-14T07:02:28.931Z,24.90
2018-07-14T07:04:57.397Z,24.90
2018-07-14T07:07:25.909Z,24.90
2018-07-14T07:09:54.314Z,24.90
2018-07-14T07:12:23.357Z,25.00
2018-07-14T07:14:52.360Z,25.00
2018-07-14T07:17:21.013Z,25.00
2018-07-14T07:19:49.779Z,25.00
2018-07-14T07:22:19.954Z,25.10
2018-07-14T07:24:48.457Z,25.10
2018-07-14T07:27:17.132Z,25.10
2018-07-14T07:29:46.419Z,25.10
2018-07-14T07:32:15.029Z,25.10
2018-07-14T07:34:45.626Z,25.10
2018-07-14T07:37:14.226Z,25.10
2018-07-14T07:39:42.741Z,25.20
2018-07-14T07:42:11.389Z,25.20
2018-07-14T07:44:39.993Z,25.20
2018-07-14T07:47:08.787Z,25.20
2018-07-14T07:49:37.360Z,25.20
2018-07-14T07:52:06.171Z,25.20
2018-07-14T07:54:35.372Z,25.20
2018-07-14T07:57:04.931Z,25.20
2018-07-14T07:59:33.921Z,25.20
2018-07-14T08:02:03.241Z,25.20
2018-07-14T08:04:32.536Z,25.30
2018-07-14T08:07:01.679Z,25.20
2018-07-14T08:09:32.388Z,25.30
2018-07-14T08:12:02.450Z,25.20
2018-07-14T08:14:31.782Z,25.30
2018-07-14T08:17:01.012Z,25.30
2018-07-14T08:19:30.184Z,25.30
2018-07-14T08:21:59.274Z,25.30
2018-07-14T08:24:28.366Z,25.30
2018-07-14T08:26:57.519Z,25.30
2018-07-14T08:29:26.664Z,25.30
2018-07-14T08:31:56.783Z,25.30
2018-07-14T08:34:25.936Z,25.30
2018-07-14T08:36:55.474Z,25.30
2018-07-14T08:39:25.047Z,25.30
2018-07-14T08:41:54.221Z,25.30
2018-07-14T08:44:23.889Z,25.30
2018-07-14T08:46:53.045Z,25.30
2018-07-14T08:49:22.240Z,25.30
2018-07-14T08:51:51.507Z,25.30
2018-07-14T08:54:20.768Z,25.30
2018-07-14T08:56:50.045Z,25.30
2018-07-14T08:59:19.282Z,25.30
2018-07-14T09:01:48.872Z,25.30
2018-07-14T09:04:18.037Z,25.30
2018-07-14T09:06:47.674Z,25.30
2018-07-14T09:09:16.776Z,25.30
2018-07-14T09:11:45.902Z,25.30
2018-07-14T09:14:14.477Z,25.30
2018-07-14T09:16:42.904Z,25.30
2018-07-14T09:19:11.394Z,25.30
2018-07-14T09:21:39.854Z,25.30
2018-07-14T09:24:08.745Z,25.30
2018-07-14T09:26:37.397Z,25.30
2018-07-14T09:29:05.879Z,25.40
2018-07-14T09:31:34.389Z,25.30
2018-07-14T09:34:03.176Z,25.30
2018-07-14T09:36:31.688Z,25.30
2018-07-14T09:39:00.200Z,25.30
2018-07-14T09:41:28.726Z,25.30
2018-07-14T09:43:57.316Z,25.30
2018-07-14T09:46:26.694Z,25.40
2018-07-14T09:48:55.300Z,25.40
2018-07-14T09:51:23.824Z,25.40
2018-07-14T09:53:52.239Z,25.40
2018-07-14T09:56:20.799Z,25.40
2018-07-14T09:58:49.631Z,25.40
2018-07-14T10:01:18.101Z,25.40
2018-07-14T10:03:46.608Z,25.40
2018-07-14T10:06:15.196Z,25.40
2018-07-14T10:08:43.689Z,25.40
2018-07-14T10:11:12.148Z,25.40
2018-07-14T10:13:40.700Z,25.40
2018-07-14T10:16:09.243Z,25.40
2018-07-14T10:18:37.645Z,25.40
2018-07-14T10:21:06.227Z,25.40
2018-07-14T10:23:35.128Z,25.40
2018-07-14T10:26:03.639Z,25.50
2018-07-14T10:28:32.148Z,25.50
2018-07-14T10:33:29.014Z,25.50
2018-07-14T10:35:57.568Z,25.50
2018-07-14T10:38:26.083Z,25.50
2018-07-14T10:40:54.605Z,25.50
2018-07-14T10:43:23.054Z,25.50
2018-07-14T10:45:51.591Z,25.50
2018-07-14T10:48:19.985Z,25.50
2018-07-14T10:50:48.557Z,25.50
2018-07-14T10:53:17.301Z,25.50
2018-07-14T10:55:47.090Z,25.50
2018-07-14T10:58:15.722Z,25.50
2018-07-14T11:00:44.143Z,25.50
2018-07-14T11:03:12.660Z,25.50
2018-07-14T11:05:41.142Z,25.60
2018-07-14T11:08:09.581Z,25.60
2018-07-14T11:10:37.987Z,25.60
2018-07-14T11:13:06.408Z,25.60
2018-07-14T11:15:35.269Z,25.60
2018-07-14T11:18:03.699Z,25.60
2018-07-14T11:20:32.149Z,25.60
2018-07-14T11:23:00.535Z,25.60
2018-07-14T11:25:28.935Z,25.60
2018-07-14T11:27:57.339Z,25.60
2018-07-14T11:30:25.721Z,25.60
2018-07-14T11:32:54.258Z,25.60
2018-07-14T11:35:22.677Z,25.60
2018-07-14T11:37:51.150Z,25.60
2018-07-14T11:40:19.684Z,25.70
2018-07-14T11:42:48.073Z,25.70
2018-07-14T11:45:16.496Z,25.70
2018-07-14T11:47:44.964Z,25.70
2018-07-14T11:50:13.303Z,25.70
2018-07-14T11:52:41.711Z,25.70
2018-07-14T11:55:10.173Z,25.70
2018-07-14T11:57:38.598Z,25.70
2018-07-14T12:02:35.217Z,25.70
2018-07-14T12:05:04.057Z,25.70
2018-07-14T12:07:32.651Z,25.70
2018-07-14T12:10:01.132Z,25.70
2018-07-14T12:12:29.611Z,25.70
2018-07-14T12:14:58.113Z,25.70
2018-07-14T12:17:26.658Z,25.70
2018-07-14T12:19:55.087Z,25.70
2018-07-14T12:22:23.557Z,25.80
2018-07-14T12:24:52.034Z,25.80
2018-07-14T12:27:20.476Z,25.80
2018-07-14T12:29:48.927Z,25.80
2018-07-14T12:32:17.548Z,25.80
2018-07-14T12:34:46.164Z,25.80
2018-07-14T12:37:14.620Z,25.70
2018-07-14T12:39:43.083Z,25.80
2018-07-14T12:42:11.567Z,25.70
2018-07-14T12:44:40.047Z,25.80
2018-07-14T12:47:08.463Z,25.70
2018-07-14T12:49:36.890Z,25.80
2018-07-14T12:52:05.324Z,25.80
2018-07-14T12:54:33.758Z,25.80
2018-07-14T12:57:02.206Z,25.80
2018-07-14T12:59:30.754Z,25.80
2018-07-14T13:01:59.279Z,25.80
2018-07-14T13:04:27.716Z,25.80
2018-07-14T13:06:56.218Z,25.80
2018-07-14T13:09:24.668Z,25.80
2018-07-14T13:11:53.137Z,25.80
2018-07-14T13:14:21.591Z,25.80
2018-07-14T13:19:18.334Z,25.80
2018-07-14T13:21:46.750Z,25.80
2018-07-14T13:24:15.208Z,25.80
2018-07-14T13:26:43.747Z,25.80
2018-07-14T13:29:12.232Z,25.80
2018-07-14T13:31:40.657Z,25.80
2018-07-14T13:34:09.111Z,25.80
2018-07-14T13:36:37.605Z,25.80
2018-07-14T13:39:06.838Z,25.80
2018-07-14T13:41:35.245Z,25.90
2018-07-14T13:44:03.719Z,25.90
2018-07-14T13:46:32.161Z,25.90
2018-07-14T13:49:00.597Z,25.90
2018-07-14T13:51:29.072Z,25.90
2018-07-14T13:53:57.910Z,25.90
2018-07-14T13:56:26.377Z,25.90
2018-07-14T13:58:54.867Z,25.90
2018-07-14T14:01:23.348Z,25.90
2018-07-14T14:03:51.979Z,25.90
2018-07-14T14:06:20.447Z,25.90
2018-07-14T14:08:48.866Z,25.90
2018-07-14T14:11:17.420Z,25.90
2018-07-14T14:13:45.828Z,25.90
2018-07-14T14:16:14.265Z,25.90
2018-07-14T14:18:42.683Z,25.90
2018-07-14T14:21:11.096Z,25.90
2018-07-14T14:23:39.569Z,25.90
2018-07-14T14:26:07.999Z,26.00
2018-07-14T14:28:36.494Z,25.90
2018-07-14T14:31:05.006Z,26.00
2018-07-14T14:33:33.471Z,26.00
2018-07-14T14:36:01.894Z,26.00
2018-07-14T14:38:30.322Z,26.00
2018-07-14T14:40:58.871Z,26.00
2018-07-14T14:43:27.306Z,26.00
2018-07-14T14:45:55.745Z,26.00
2018-07-14T14:48:24.170Z,26.00
2018-07-14T14:50:52.733Z,26.00
2018-07-14T14:53:21.190Z,26.00
2018-07-14T14:55:49.721Z,26.00
2018-07-14T14:58:18.145Z,26.00
2018-07-14T15:00:46.602Z,26.00
2018-07-14T15:03:15.004Z,26.00
2018-07-14T15:05:43.486Z,26.00
2018-07-14T15:08:11.947Z,26.00
2018-07-14T15:10:40.360Z,26.00
2018-07-14T15:13:08.846Z,25.90
2018-07-14T15:15:37.331Z,25.90
2018-07-14T15:18:05.850Z,25.90
2018-07-14T15:20:34.360Z,25.90
2018-07-14T15:23:02.803Z,25.90
2018-07-14T15:25:31.364Z,25.90
2018-07-14T15:27:59.851Z,25.90
2018-07-14T15:30:28.366Z,26.00
2018-07-14T15:32:57.002Z,25.90
2018-07-14T15:35:25.385Z,25.90
2018-07-14T15:37:53.933Z,25.90
2018-07-14T15:40:22.507Z,25.90
2018-07-14T15:42:51.091Z,25.90
2018-07-14T15:45:19.558Z,25.90
2018-07-14T15:47:48.028Z,25.90
2018-07-14T15:50:16.473Z,25.90
2018-07-14T15:52:44.936Z,25.90
2018-07-14T15:55:13.503Z,25.90
2018-07-14T15:57:41.935Z,25.90
2018-07-14T16:00:10.525Z,25.90
2018-07-14T16:02:38.919Z,25.90
2018-07-14T16:05:07.360Z,25.90
2018-07-14T16:07:35.819Z,25.90
2018-07-14T16:10:04.299Z,25.90
2018-07-14T16:12:33.097Z,25.90
2018-07-14T16:15:01.554Z,25.90
2018-07-14T16:17:30.021Z,25.90
2018-07-14T16:19:58.518Z,25.90
2018-07-14T16:22:26.955Z,25.80
2018-07-14T16:24:55.367Z,25.90
2018-07-14T16:27:23.804Z,25.80
2018-07-14T16:29:52.255Z,25.90
2018-07-14T16:32:20.739Z,25.80
2018-07-14T16:34:49.198Z,25.80
2018-07-14T16:37:17.631Z,25.80
2018-07-14T16:39:46.102Z,25.80
2018-07-14T16:42:14.641Z,25.90
2018-07-14T16:44:43.078Z,25.80
2018-07-14T16:49:39.904Z,25.80
2018-07-14T16:52:08.298Z,25.80
2018-07-14T16:57:04.983Z,25.80
2018-07-14T16:59:33.392Z,25.80
2018-07-14T17:02:01.817Z,25.80
2018-07-14T17:04:30.347Z,25.80
2018-07-14T17:06:58.796Z,25.80
2018-07-14T17:09:27.767Z,25.80
2018-07-14T17:11:57.832Z,25.80
2018-07-14T17:14:26.348Z,25.80
2018-07-14T17:16:54.771Z,25.80
2018-07-14T17:19:23.355Z,25.80
2018-07-14T17:21:52.072Z,25.80
2018-07-14T17:24:20.535Z,25.80
2018-07-14T17:26:49.004Z,25.80
2018-07-14T17:29:17.543Z,25.70
2018-07-14T17:31:45.959Z,25.70
2018-07-14T17:34:14.401Z,25.70
2018-07-14T17:36:42.865Z,25.70
2018-07-14T17:41:39.570Z,25.70
2018-07-14T17:44:08.064Z,25.70
2018-07-14T17:49:04.779Z,25.70
2018-07-14T17:51:33.298Z,25.70
2018-07-14T17:56:29.868Z,25.70
2018-07-14T17:58:58.305Z,25.70
2018-07-14T18:01:26.843Z,25.70
2018-07-14T18:03:55.455Z,25.70
2018-07-14T18:06:23.956Z,25.70
2018-07-14T18:08:52.426Z,25.60
2018-07-14T18:11:21.400Z,25.60
2018-07-14T18:13:49.885Z,25.60
2018-07-14T18:16:18.327Z,25.60
2018-07-14T18:18:46.764Z,25.60
2018-07-14T18:23:43.313Z,25.60
2018-07-14T18:26:11.729Z,25.60
2018-07-14T18:28:40.142Z,25.60
2018-07-14T18:31:08.579Z,25.60
2018-07-14T18:33:36.981Z,25.60
2018-07-14T18:36:05.502Z,25.60
2018-07-14T18:38:34.183Z,25.60
2018-07-14T18:41:02.609Z,25.50
2018-07-14T18:43:31.052Z,25.50
2018-07-14T18:45:59.479Z,25.50
2018-07-14T18:48:27.887Z,25.50
2018-07-14T18:50:56.327Z,25.50
2018-07-14T18:55:52.944Z,25.50
2018-07-14T18:58:21.372Z,25.50
2018-07-14T19:00:49.829Z,25.50
2018-07-14T19:03:18.253Z,25.40
2018-07-14T19:05:46.762Z,25.50
2018-07-14T19:08:15.560Z,25.40
2018-07-14T19:10:43.980Z,25.40
2018-07-14T19:15:42.398Z,25.40
2018-07-14T19:18:10.874Z,25.40
2018-07-14T19:20:39.288Z,25.40
2018-07-14T19:23:07.739Z,25.40
2018-07-14T19:25:36.225Z,25.40
2018-07-14T19:28:04.646Z,25.40
2018-07-14T19:30:33.197Z,25.40
2018-07-14T19:33:01.688Z,25.40
2018-07-14T19:35:30.213Z,25.40
2018-07-14T19:37:58.702Z,25.40
2018-07-14T19:40:27.481Z,25.40
2018-07-14T19:42:56.031Z,25.40
2018-07-14T19:45:24.360Z,25.40
2018-07-14T19:47:53.035Z,25.40
2018-07-14T19:50:21.907Z,25.30
2018-07-14T19:52:50.797Z,25.30
2018-07-14T19:55:19.528Z,25.30
2018-07-14T19:57:48.164Z,25.30
2018-07-14T20:00:16.710Z,25.30
2018-07-14T20:02:45.160Z,25.30
2018-07-14T20:05:13.605Z,25.30
2018-07-14T20:07:42.094Z,25.30
2018-07-14T20:10:10.602Z,25.30
2018-07-14T20:12:40.241Z,25.30
2018-07-14T20:15:09.690Z,25.30
2018-07-14T20:17:38.376Z,25.30
2018-07-14T20:20:08.403Z,25.30
2018-07-14T20:22:37.069Z,25.30
2018-07-14T20:25:05.548Z,25.30
2018-07-14T20:27:34.049Z,25.30
2018-07-14T20:30:02.882Z,25.30
2018-07-14T20:32:31.319Z,25.30
2018-07-14T20:34:59.893Z,25.20
2018-07-14T20:37:28.349Z,25.20
2018-07-14T20:39:56.859Z,25.20
2018-07-14T20:42:25.252Z,25.20
2018-07-14T20:44:53.732Z,25.20
2018-07-14T20:49:58.086Z,25.20
2018-07-14T20:52:26.627Z,25.20
2018-07-14T20:54:55.020Z,25.20
2018-07-14T20:57:23.511Z,25.20
2018-07-14T20:59:51.941Z,25.20
2018-07-14T21:02:20.369Z,25.20
2018-07-14T21:04:48.794Z,25.20
2018-07-14T21:07:17.315Z,25.20
2018-07-14T21:09:46.044Z,25.20
2018-07-14T21:12:14.752Z,25.20
2018-07-14T21:14:43.132Z,25.20
2018-07-14T21:17:11.568Z,25.20
2018-07-14T21:19:40.215Z,25.20
2018-07-14T21:22:08.660Z,25.10
2018-07-14T21:24:37.095Z,25.10
2018-07-14T21:27:05.762Z,25.10
2018-07-14T21:29:34.186Z,25.10
2018-07-14T21:32:02.750Z,25.10
2018-07-14T21:34:32.164Z,25.10
2018-07-14T21:37:00.745Z,25.10
2018-07-14T21:39:29.288Z,25.10
2018-07-14T21:41:57.735Z,25.10
2018-07-14T21:44:26.179Z,25.10
2018-07-14T21:46:54.636Z,25.10
2018-07-14T21:49:23.076Z,25.10
2018-07-14T21:51:51.511Z,25.10
2018-07-14T21:54:19.949Z,25.10
2018-07-14T21:56:48.430Z,25.10
2018-07-14T21:59:16.956Z,25.10
2018-07-14T22:01:51.040Z,25.10
2018-07-14T22:06:48.510Z,25.10
2018-07-14T22:09:16.947Z,25.10
2018-07-14T22:11:45.365Z,25.10
2018-07-14T22:14:13.809Z,25.00
2018-07-14T22:16:42.252Z,25.00
2018-07-14T22:19:10.691Z,25.00
2018-07-14T22:21:39.107Z,25.00
2018-07-14T22:24:07.577Z,25.00
2018-07-14T22:26:35.998Z,25.00
2018-07-14T22:29:04.446Z,25.00
2018-07-14T22:31:32.963Z,25.00
2018-07-14T22:34:02.554Z,25.00
2018-07-14T22:36:32.404Z,25.00
2018-07-14T22:39:01.780Z,25.00
2018-07-14T22:41:31.043Z,25.00
2018-07-14T22:44:00.773Z,25.00
2018-07-14T22:46:29.326Z,25.00
2018-07-14T22:48:57.876Z,25.00
2018-07-14T22:51:26.414Z,25.00
2018-07-14T22:53:54.855Z,25.00
2018-07-14T22:56:23.280Z,25.00
2018-07-14T22:58:51.713Z,25.00
2018-07-14T23:01:20.150Z,25.00
2018-07-14T23:03:48.593Z,25.00
2018-07-14T23:06:17.022Z,25.00
2018-07-14T23:08:45.439Z,25.00
2018-07-14T23:11:13.870Z,25.00
2018-07-14T23:13:42.301Z,24.90
2018-07-14T23:16:10.718Z,25.00
2018-07-14T23:18:39.226Z,25.00
2018-07-14T23:21:07.664Z,24.90
2018-07-14T23:23:36.079Z,24.90
2018-07-14T23:26:04.502Z,24.90
2018-07-14T23:28:33.011Z,24.90
2018-07-14T23:31:02.461Z,24.90
2018-07-14T23:33:31.794Z,24.90
2018-07-14T23:36:00.730Z,24.90
2018-07-14T23:38:29.867Z,24.90
2018-07-14T23:40:58.324Z,24.90
2018-07-14T23:43:26.735Z,24.90
2018-07-14T23:45:55.260Z,24.90
2018-07-14T23:48:23.673Z,24.90
2018-07-14T23:50:52.079Z,24.90
2018-07-14T23:53:20.497Z,24.90
2018-07-14T23:55:48.899Z,24.90
2018-07-14T23:58:17.309Z,24.90
